sensor_id;sensor_type;location;lat;lon;timestamp;pressure;altitude;pressure_sealevel;temperature;humidity
77889;BME280;67082;41.704;44.768;2023-02-19T00:01:50;95854.38;;;5.41;56.48
77889;BME280;67082;41.704;44.768;2023-02-19T00:04:20;95857.47;;;5.43;56.58
77889;BME280;67082;41.704;44.768;2023-02-19T00:06:51;95858.69;;;5.42;57.05
77889;BME280;67082;41.704;44.768;2023-02-19T00:09:19;95848.72;;;5.25;58.46
77889;BME280;67082;41.704;44.768;2023-02-19T00:11:48;95840.28;;;5.09;59.09
77889;BME280;67082;41.704;44.768;2023-02-19T00:14:19;95837.00;;;5.21;58.49
77889;BME280;67082;41.704;44.768;2023-02-19T00:16:48;95857.38;;;5.23;58.33
77889;BME280;67082;41.704;44.768;2023-02-19T00:19:18;95842.84;;;5.23;58.05
77889;BME280;67082;41.704;44.768;2023-02-19T00:21:50;95849.94;;;5.20;57.69
77889;BME280;67082;41.704;44.768;2023-02-19T00:24:19;95842.13;;;5.19;58.39
77889;BME280;67082;41.704;44.768;2023-02-19T00:26:47;95844.34;;;4.67;59.74
77889;BME280;67082;41.704;44.768;2023-02-19T00:29:18;95831.72;;;4.73;59.51
77889;BME280;67082;41.704;44.768;2023-02-19T00:31:47;95836.06;;;4.71;58.87
77889;BME280;67082;41.704;44.768;2023-02-19T00:34:15;95836.00;;;4.74;58.17
77889;BME280;67082;41.704;44.768;2023-02-19T00:36:43;95837.31;;;4.96;57.72
77889;BME280;67082;41.704;44.768;2023-02-19T00:39:14;95826.50;;;5.12;57.25
77889;BME280;67082;41.704;44.768;2023-02-19T00:41:43;95825.47;;;5.03;57.29
77889;BME280;67082;41.704;44.768;2023-02-19T00:44:13;95821.44;;;5.11;57.22
77889;BME280;67082;41.704;44.768;2023-02-19T00:46:43;95826.00;;;5.21;57.21
77889;BME280;67082;41.704;44.768;2023-02-19T00:49:16;95816.13;;;4.97;57.19
77889;BME280;67082;41.704;44.768;2023-02-19T00:51:45;95820.19;;;4.89;57.32
77889;BME280;67082;41.704;44.768;2023-02-19T00:54:13;95815.13;;;4.84;57.28
77889;BME280;67082;41.704;44.768;2023-02-19T00:56:42;95817.97;;;5.07;56.61
77889;BME280;67082;41.704;44.768;2023-02-19T00:59:10;95806.09;;;5.13;56.38
77889;BME280;67082;41.704;44.768;2023-02-19T01:01:38;95809.94;;;5.19;55.98
77889;BME280;67082;41.704;44.768;2023-02-19T01:04:06;95806.06;;;4.87;57.31
77889;BME280;67082;41.704;44.768;2023-02-19T01:06:35;95802.56;;;4.83;57.65
77889;BME280;67082;41.704;44.768;2023-02-19T01:09:04;95811.56;;;4.87;56.92
77889;BME280;67082;41.704;44.768;2023-02-19T01:11:34;95803.88;;;4.75;58.00
77889;BME280;67082;41.704;44.768;2023-02-19T01:14:02;95793.03;;;4.64;58.33
77889;BME280;67082;41.704;44.768;2023-02-19T01:16:31;95806.50;;;4.52;57.95
77889;BME280;67082;41.704;44.768;2023-02-19T01:18:59;95805.13;;;4.70;57.23
77889;BME280;67082;41.704;44.768;2023-02-19T01:21:29;95796.59;;;4.91;56.89
77889;BME280;67082;41.704;44.768;2023-02-19T01:23:58;95795.78;;;4.94;56.35
77889;BME280;67082;41.704;44.768;2023-02-19T01:26:29;95785.94;;;4.97;56.09
77889;BME280;67082;41.704;44.768;2023-02-19T01:28:59;95795.41;;;4.92;54.31
77889;BME280;67082;41.704;44.768;2023-02-19T01:31:28;95776.59;;;4.91;54.39
77889;BME280;67082;41.704;44.768;2023-02-19T01:33:58;95789.50;;;4.94;55.45
77889;BME280;67082;41.704;44.768;2023-02-19T01:36:28;95793.44;;;4.93;55.22
77889;BME280;67082;41.704;44.768;2023-02-19T01:38:59;95793.03;;;4.64;55.22
77889;BME280;67082;41.704;44.768;2023-02-19T01:41:27;95785.56;;;4.65;54.98
77889;BME280;67082;41.704;44.768;2023-02-19T01:46:33;95776.38;;;4.78;54.81
77889;BME280;67082;41.704;44.768;2023-02-19T01:49:08;95789.66;;;4.83;54.53
77889;BME280;67082;41.704;44.768;2023-02-19T01:51:59;95783.88;;;4.74;54.22
77889;BME280;67082;41.704;44.768;2023-02-19T01:54:30;95787.66;;;4.54;55.68
77889;BME280;67082;41.704;44.768;2023-02-19T01:57:01;95783.28;;;4.60;55.34
77889;BME280;67082;41.704;44.768;2023-02-19T01:59:32;95782.19;;;4.84;55.46
77889;BME280;67082;41.704;44.768;2023-02-19T02:02:00;95774.38;;;4.52;56.20
77889;BME280;67082;41.704;44.768;2023-02-19T02:04:31;95776.63;;;4.61;55.29
77889;BME280;67082;41.704;44.768;2023-02-19T02:07:02;95793.44;;;4.93;54.99
77889;BME280;67082;41.704;44.768;2023-02-19T02:09:52;95792.69;;;5.19;53.81
77889;BME280;67082;41.704;44.768;2023-02-19T02:12:39;95778.34;;;5.08;55.01
77889;BME280;67082;41.704;44.768;2023-02-19T02:15:07;95777.66;;;5.27;54.45
77889;BME280;67082;41.704;44.768;2023-02-19T02:17:58;95767.16;;;5.45;53.71
77889;BME280;67082;41.704;44.768;2023-02-19T02:23:45;95786.75;;;5.24;54.53
77889;BME280;67082;41.704;44.768;2023-02-19T02:32:24;95783.94;;;5.27;53.80
77889;BME280;67082;41.704;44.768;2023-02-19T02:35:00;95774.16;;;5.26;53.87
77889;BME280;67082;41.704;44.768;2023-02-19T02:37:33;95775.13;;;5.13;54.02
77889;BME280;67082;41.704;44.768;2023-02-19T02:40:06;95777.34;;;5.21;54.12
77889;BME280;67082;41.704;44.768;2023-02-19T02:42:39;95769.28;;;5.34;53.88
77889;BME280;67082;41.704;44.768;2023-02-19T02:45:31;95777.56;;;5.57;53.71
77889;BME280;67082;41.704;44.768;2023-02-19T02:51:05;95768.84;;;5.62;52.72
77889;BME280;67082;41.704;44.768;2023-02-19T02:54:17;95768.25;;;5.51;52.77
77889;BME280;67082;41.704;44.768;2023-02-19T02:57:10;95777.34;;;5.71;52.01
77889;BME280;67082;41.704;44.768;2023-02-19T02:59:52;95754.03;;;5.56;52.67
77889;BME280;67082;41.704;44.768;2023-02-19T03:02:27;95769.25;;;5.87;51.97
77889;BME280;67082;41.704;44.768;2023-02-19T03:05:12;95759.75;;;5.91;51.50
77889;BME280;67082;41.704;44.768;2023-02-19T03:10:46;95760.94;;;5.90;51.25
77889;BME280;67082;41.704;44.768;2023-02-19T03:13:24;95755.78;;;5.92;51.13
77889;BME280;67082;41.704;44.768;2023-02-19T03:16:21;95758.81;;;5.98;51.79
77889;BME280;67082;41.704;44.768;2023-02-19T03:19:13;95767.97;;;6.14;51.07
77889;BME280;67082;41.704;44.768;2023-02-19T03:24:30;95768.13;;;6.04;51.79
77889;BME280;67082;41.704;44.768;2023-02-19T03:27:20;95773.91;;;5.90;51.91
77889;BME280;67082;41.704;44.768;2023-02-19T03:29:56;95736.53;;;5.69;51.74
77889;BME280;67082;41.704;44.768;2023-02-19T03:32:32;95753.06;;;6.12;50.91
77889;BME280;67082;41.704;44.768;2023-02-19T03:35:24;95742.69;;;6.00;51.63
77889;BME280;67082;41.704;44.768;2023-02-19T03:38:19;95734.25;;;6.10;51.10
77889;BME280;67082;41.704;44.768;2023-02-19T03:41:04;95731.84;;;6.12;53.79
77889;BME280;67082;41.704;44.768;2023-02-19T03:44:04;95751.72;;;6.20;54.61
77889;BME280;67082;41.704;44.768;2023-02-19T03:47:01;95752.16;;;5.99;56.40
77889;BME280;67082;41.704;44.768;2023-02-19T03:49:47;95751.25;;;6.25;55.32
77889;BME280;67082;41.704;44.768;2023-02-19T03:52:38;95747.38;;;6.42;55.32
77889;BME280;67082;41.704;44.768;2023-02-19T03:55:14;95745.28;;;6.49;55.67
77889;BME280;67082;41.704;44.768;2023-02-19T04:00:41;95742.44;;;6.53;54.56
77889;BME280;67082;41.704;44.768;2023-02-19T04:05:54;95735.09;;;6.66;52.97
77889;BME280;67082;41.704;44.768;2023-02-19T04:08:26;95725.22;;;6.49;53.17
77889;BME280;67082;41.704;44.768;2023-02-19T04:11:00;95739.06;;;6.45;53.09
77889;BME280;67082;41.704;44.768;2023-02-19T04:13:44;95725.84;;;6.37;52.37
77889;BME280;67082;41.704;44.768;2023-02-19T04:16:20;95744.06;;;6.31;52.29
77889;BME280;67082;41.704;44.768;2023-02-19T04:18:52;95739.03;;;6.26;52.44
77889;BME280;67082;41.704;44.768;2023-02-19T04:21:21;95743.94;;;6.18;52.33
77889;BME280;67082;41.704;44.768;2023-02-19T04:23:50;95743.34;;;6.27;52.17
77889;BME280;67082;41.704;44.768;2023-02-19T04:26:20;95732.97;;;6.34;52.36
77889;BME280;67082;41.704;44.768;2023-02-19T04:28:49;95745.09;;;6.17;53.06
77889;BME280;67082;41.704;44.768;2023-02-19T04:31:18;95744.34;;;6.17;52.97
77889;BME280;67082;41.704;44.768;2023-02-19T04:33:46;95733.06;;;6.31;52.12
77889;BME280;67082;41.704;44.768;2023-02-19T04:36:14;95747.53;;;6.54;51.52
77889;BME280;67082;41.704;44.768;2023-02-19T04:38:42;95752.47;;;6.63;51.68
77889;BME280;67082;41.704;44.768;2023-02-19T04:41:10;95752.41;;;6.47;51.36
77889;BME280;67082;41.704;44.768;2023-02-19T04:43:39;95758.47;;;6.38;51.66
77889;BME280;67082;41.704;44.768;2023-02-19T04:46:07;95750.69;;;6.53;52.11
77889;BME280;67082;41.704;44.768;2023-02-19T04:48:35;95756.91;;;6.76;51.24
77889;BME280;67082;41.704;44.768;2023-02-19T04:51:06;95748.34;;;6.90;51.73
77889;BME280;67082;41.704;44.768;2023-02-19T04:53:35;95752.13;;;6.96;52.47
77889;BME280;67082;41.704;44.768;2023-02-19T04:56:09;95750.34;;;7.06;52.93
77889;BME280;67082;41.704;44.768;2023-02-19T04:58:39;95740.31;;;6.96;53.65
77889;BME280;67082;41.704;44.768;2023-02-19T05:01:08;95747.09;;;7.11;53.28
77889;BME280;67082;41.704;44.768;2023-02-19T05:03:37;95733.66;;;7.13;53.52
77889;BME280;67082;41.704;44.768;2023-02-19T05:06:08;95739.44;;;7.18;53.17
77889;BME280;67082;41.704;44.768;2023-02-19T05:08:38;95726.41;;;7.19;50.97
77889;BME280;67082;41.704;44.768;2023-02-19T05:11:08;95747.44;;;7.29;50.73
77889;BME280;67082;41.704;44.768;2023-02-19T05:13:38;95748.84;;;7.37;50.61
77889;BME280;67082;41.704;44.768;2023-02-19T05:16:09;95739.47;;;7.34;50.80
77889;BME280;67082;41.704;44.768;2023-02-19T05:18:43;95737.09;;;7.17;51.89
77889;BME280;67082;41.704;44.768;2023-02-19T05:21:13;95748.19;;;7.49;51.66
77889;BME280;67082;41.704;44.768;2023-02-19T05:23:43;95742.22;;;7.66;51.90
77889;BME280;67082;41.704;44.768;2023-02-19T05:26:17;95740.56;;;7.85;51.02
77889;BME280;67082;41.704;44.768;2023-02-19T05:28:48;95745.81;;;7.95;50.09
77889;BME280;67082;41.704;44.768;2023-02-19T05:31:17;95735.38;;;8.03;49.55
77889;BME280;67082;41.704;44.768;2023-02-19T05:33:45;95744.34;;;8.07;49.00
77889;BME280;67082;41.704;44.768;2023-02-19T05:36:19;95745.47;;;8.09;48.99
77889;BME280;67082;41.704;44.768;2023-02-19T05:38:55;95738.47;;;8.21;48.86
77889;BME280;67082;41.704;44.768;2023-02-19T05:41:26;95735.78;;;8.17;48.02
77889;BME280;67082;41.704;44.768;2023-02-19T05:43:56;95732.50;;;8.22;48.10
77889;BME280;67082;41.704;44.768;2023-02-19T05:46:27;95736.69;;;8.43;48.07
77889;BME280;67082;41.704;44.768;2023-02-19T05:48:56;95732.97;;;8.62;48.40
77889;BME280;67082;41.704;44.768;2023-02-19T05:51:28;95723.69;;;8.56;48.26
77889;BME280;67082;41.704;44.768;2023-02-19T05:53:56;95712.06;;;8.48;48.75
77889;BME280;67082;41.704;44.768;2023-02-19T05:56:38;95713.53;;;8.53;48.12
77889;BME280;67082;41.704;44.768;2023-02-19T05:59:16;95719.16;;;8.21;48.11
77889;BME280;67082;41.704;44.768;2023-02-19T06:01:44;95724.53;;;8.40;48.77
77889;BME280;67082;41.704;44.768;2023-02-19T06:04:13;95713.34;;;8.31;48.52
77889;BME280;67082;41.704;44.768;2023-02-19T06:06:42;95713.19;;;8.22;49.47
77889;BME280;67082;41.704;44.768;2023-02-19T06:09:10;95714.09;;;8.03;50.02
77889;BME280;67082;41.704;44.768;2023-02-19T06:11:39;95707.84;;;8.15;49.75
77889;BME280;67082;41.704;44.768;2023-02-19T06:14:07;95708.88;;;8.21;51.36
77889;BME280;67082;41.704;44.768;2023-02-19T06:16:35;95732.66;;;8.60;49.60
77889;BME280;67082;41.704;44.768;2023-02-19T06:19:03;95715.75;;;8.70;50.01
77889;BME280;67082;41.704;44.768;2023-02-19T06:21:32;95713.81;;;8.96;49.32
77889;BME280;67082;41.704;44.768;2023-02-19T06:24:05;95718.22;;;8.81;47.94
77889;BME280;67082;41.704;44.768;2023-02-19T06:26:33;95705.44;;;8.87;48.61
77889;BME280;67082;41.704;44.768;2023-02-19T06:29:02;95708.25;;;8.71;48.62
77889;BME280;67082;41.704;44.768;2023-02-19T06:31:30;95704.97;;;8.76;48.04
77889;BME280;67082;41.704;44.768;2023-02-19T06:34:02;95708.16;;;8.74;48.48
77889;BME280;67082;41.704;44.768;2023-02-19T06:36:31;95700.97;;;8.77;48.22
77889;BME280;67082;41.704;44.768;2023-02-19T06:39:00;95698.97;;;8.65;48.58
77889;BME280;67082;41.704;44.768;2023-02-19T06:41:28;95701.94;;;8.70;48.81
77889;BME280;67082;41.704;44.768;2023-02-19T06:43:57;95693.13;;;8.75;48.45
77889;BME280;67082;41.704;44.768;2023-02-19T06:46:25;95691.47;;;8.78;48.12
77889;BME280;67082;41.704;44.768;2023-02-19T06:48:53;95688.31;;;8.92;49.35
77889;BME280;67082;41.704;44.768;2023-02-19T06:51:21;95681.22;;;8.91;48.15
77889;BME280;67082;41.704;44.768;2023-02-19T06:53:54;95686.91;;;8.71;48.59
77889;BME280;67082;41.704;44.768;2023-02-19T06:56:26;95676.56;;;8.88;48.54
77889;BME280;67082;41.704;44.768;2023-02-19T06:58:59;95673.94;;;8.84;48.13
77889;BME280;67082;41.704;44.768;2023-02-19T07:01:29;95644.75;;;8.83;48.43
77889;BME280;67082;41.704;44.768;2023-02-19T07:04:16;95658.09;;;8.85;48.38
77889;BME280;67082;41.704;44.768;2023-02-19T07:06:44;95679.56;;;8.81;50.34
77889;BME280;67082;41.704;44.768;2023-02-19T07:09:12;95680.53;;;8.74;51.98
77889;BME280;67082;41.704;44.768;2023-02-19T07:11:40;95663.66;;;8.97;51.03
77889;BME280;67082;41.704;44.768;2023-02-19T07:14:14;95675.94;;;9.09;51.25
77889;BME280;67082;41.704;44.768;2023-02-19T07:16:42;95672.72;;;8.98;51.56
77889;BME280;67082;41.704;44.768;2023-02-19T07:19:11;95680.78;;;8.92;52.30
77889;BME280;67082;41.704;44.768;2023-02-19T07:21:40;95680.66;;;8.96;52.43
77889;BME280;67082;41.704;44.768;2023-02-19T07:24:09;95687.03;;;8.68;53.74
77889;BME280;67082;41.704;44.768;2023-02-19T07:26:37;95701.13;;;8.86;53.19
77889;BME280;67082;41.704;44.768;2023-02-19T07:29:05;95701.53;;;8.72;53.46
77889;BME280;67082;41.704;44.768;2023-02-19T07:31:34;95701.41;;;8.75;53.05
77889;BME280;67082;41.704;44.768;2023-02-19T07:34:03;95683.81;;;8.57;54.30
77889;BME280;67082;41.704;44.768;2023-02-19T07:36:31;95691.59;;;8.87;53.21
77889;BME280;67082;41.704;44.768;2023-02-19T07:38:59;95684.00;;;9.03;52.92
77889;BME280;67082;41.704;44.768;2023-02-19T07:41:27;95685.53;;;8.92;53.91
77889;BME280;67082;41.704;44.768;2023-02-19T07:43:57;95676.69;;;8.97;53.14
77889;BME280;67082;41.704;44.768;2023-02-19T07:46:25;95673.69;;;9.16;52.34
77889;BME280;67082;41.704;44.768;2023-02-19T07:48:54;95687.31;;;9.23;51.94
77889;BME280;67082;41.704;44.768;2023-02-19T07:51:22;95704.66;;;9.11;52.77
77889;BME280;67082;41.704;44.768;2023-02-19T07:53:50;95688.63;;;8.94;53.60
77889;BME280;67082;41.704;44.768;2023-02-19T07:56:19;95676.94;;;9.15;53.25
77889;BME280;67082;41.704;44.768;2023-02-19T07:58:47;95683.78;;;9.23;51.73
77889;BME280;67082;41.704;44.768;2023-02-19T08:01:18;95694.91;;;8.94;51.86
77889;BME280;67082;41.704;44.768;2023-02-19T08:04:07;95681.91;;;9.07;52.46
77889;BME280;67082;41.704;44.768;2023-02-19T08:06:34;95674.91;;;9.15;51.13
77889;BME280;67082;41.704;44.768;2023-02-19T08:09:04;95665.41;;;9.29;52.32
77889;BME280;67082;41.704;44.768;2023-02-19T08:11:32;95674.00;;;9.56;51.60
77889;BME280;67082;41.704;44.768;2023-02-19T08:14:23;95673.03;;;9.50;50.59
77889;BME280;67082;41.704;44.768;2023-02-19T08:16:51;95673.69;;;9.16;50.78
77889;BME280;67082;41.704;44.768;2023-02-19T08:19:20;95682.31;;;9.31;50.11
77889;BME280;67082;41.704;44.768;2023-02-19T08:21:48;95675.03;;;9.24;50.26
77889;BME280;67082;41.704;44.768;2023-02-19T08:24:17;95663.31;;;9.33;49.90
77889;BME280;67082;41.704;44.768;2023-02-19T08:26:45;95659.75;;;9.32;50.82
77889;BME280;67082;41.704;44.768;2023-02-19T08:29:14;95672.69;;;9.48;51.86
77889;BME280;67082;41.704;44.768;2023-02-19T08:31:41;95676.97;;;9.49;52.43
77889;BME280;67082;41.704;44.768;2023-02-19T08:34:10;95674.38;;;9.33;53.08
77889;BME280;67082;41.704;44.768;2023-02-19T08:36:38;95671.25;;;9.43;53.26
77889;BME280;67082;41.704;44.768;2023-02-19T08:39:06;95657.53;;;9.52;53.38
77889;BME280;67082;41.704;44.768;2023-02-19T08:41:34;95655.09;;;9.42;53.36
77889;BME280;67082;41.704;44.768;2023-02-19T08:44:03;95648.63;;;9.23;53.02
77889;BME280;67082;41.704;44.768;2023-02-19T08:46:31;95655.88;;;9.55;53.19
77889;BME280;67082;41.704;44.768;2023-02-19T08:49:01;95649.00;;;9.59;53.12
77889;BME280;67082;41.704;44.768;2023-02-19T08:51:29;95659.03;;;9.66;52.60
77889;BME280;67082;41.704;44.768;2023-02-19T08:53:57;95658.88;;;9.82;51.75
77889;BME280;67082;41.704;44.768;2023-02-19T08:56:25;95653.56;;;9.87;51.54
77889;BME280;67082;41.704;44.768;2023-02-19T08:58:53;95651.31;;;9.95;51.18
77889;BME280;67082;41.704;44.768;2023-02-19T09:01:21;95641.28;;;9.88;50.97
77889;BME280;67082;41.704;44.768;2023-02-19T09:03:51;95655.97;;;9.51;52.11
77889;BME280;67082;41.704;44.768;2023-02-19T09:06:19;95638.47;;;9.67;52.73
77889;BME280;67082;41.704;44.768;2023-02-19T09:08:48;95635.97;;;9.35;53.38
77889;BME280;67082;41.704;44.768;2023-02-19T09:11:16;95632.63;;;9.86;51.82
77889;BME280;67082;41.704;44.768;2023-02-19T09:13:45;95638.47;;;9.67;52.53
77889;BME280;67082;41.704;44.768;2023-02-19T09:16:12;95633.63;;;9.46;53.20
77889;BME280;67082;41.704;44.768;2023-02-19T09:18:41;95654.47;;;9.72;52.39
77889;BME280;67082;41.704;44.768;2023-02-19T09:21:10;95618.44;;;9.63;52.52
77889;BME280;67082;41.704;44.768;2023-02-19T09:23:38;95628.84;;;9.12;53.81
77889;BME280;67082;41.704;44.768;2023-02-19T09:26:09;95624.97;;;9.56;53.30
77889;BME280;67082;41.704;44.768;2023-02-19T09:28:38;95621.78;;;9.58;53.82
77889;BME280;67082;41.704;44.768;2023-02-19T09:31:10;95627.56;;;9.51;53.21
77889;BME280;67082;41.704;44.768;2023-02-19T09:33:44;95615.56;;;9.54;53.44
77889;BME280;67082;41.704;44.768;2023-02-19T09:36:14;95614.13;;;9.62;53.27
77889;BME280;67082;41.704;44.768;2023-02-19T09:38:43;95626.31;;;9.52;53.03
77889;BME280;67082;41.704;44.768;2023-02-19T09:41:28;95604.09;;;9.43;54.08
77889;BME280;67082;41.704;44.768;2023-02-19T09:43:59;95618.69;;;9.90;51.68
77889;BME280;67082;41.704;44.768;2023-02-19T09:46:36;95599.41;;;9.65;52.53
77889;BME280;67082;41.704;44.768;2023-02-19T09:49:12;95597.56;;;9.83;52.49
77889;BME280;67082;41.704;44.768;2023-02-19T09:51:43;95591.75;;;9.69;52.90
77889;BME280;67082;41.704;44.768;2023-02-19T09:54:20;95603.19;;;9.92;52.16
77889;BME280;67082;41.704;44.768;2023-02-19T09:56:49;95587.28;;;9.84;52.38
77889;BME280;67082;41.704;44.768;2023-02-19T09:59:23;95588.13;;;9.59;52.26
77889;BME280;67082;41.704;44.768;2023-02-19T10:01:58;95575.75;;;9.85;51.97
77889;BME280;67082;41.704;44.768;2023-02-19T10:04:29;95577.28;;;9.86;51.73
77889;BME280;67082;41.704;44.768;2023-02-19T10:06:58;95569.50;;;9.94;52.37
77889;BME280;67082;41.704;44.768;2023-02-19T10:09:32;95578.72;;;9.69;52.35
77889;BME280;67082;41.704;44.768;2023-02-19T10:12:01;95571.81;;;9.74;52.76
77889;BME280;67082;41.704;44.768;2023-02-19T10:14:39;95571.47;;;10.06;51.92
77889;BME280;67082;41.704;44.768;2023-02-19T10:17:17;95582.63;;;9.81;52.65
77889;BME280;67082;41.704;44.768;2023-02-19T10:19:48;95572.91;;;9.76;52.21
77889;BME280;67082;41.704;44.768;2023-02-19T10:22:16;95567.97;;;9.93;52.92
77889;BME280;67082;41.704;44.768;2023-02-19T10:24:49;95553.03;;;10.12;51.69
77889;BME280;67082;41.704;44.768;2023-02-19T10:27:19;95554.44;;;9.95;52.64
77889;BME280;67082;41.704;44.768;2023-02-19T10:29:48;95550.66;;;10.23;52.10
77889;BME280;67082;41.704;44.768;2023-02-19T10:32:21;95547.97;;;10.62;50.95
77889;BME280;67082;41.704;44.768;2023-02-19T10:35:10;95559.88;;;10.80;50.10
77889;BME280;67082;41.704;44.768;2023-02-19T10:37:46;95557.44;;;10.91;49.08
77889;BME280;67082;41.704;44.768;2023-02-19T10:40:17;95558.53;;;10.94;47.80
77889;BME280;67082;41.704;44.768;2023-02-19T10:42:48;95538.63;;;10.77;48.02
77889;BME280;67082;41.704;44.768;2023-02-19T10:45:32;95542.25;;;10.96;47.29
77889;BME280;67082;41.704;44.768;2023-02-19T10:48:01;95557.69;;;11.24;47.13
77889;BME280;67082;41.704;44.768;2023-02-19T10:50:33;95541.22;;;11.29;47.05
77889;BME280;67082;41.704;44.768;2023-02-19T10:53:20;95538.63;;;10.86;46.79
77889;BME280;67082;41.704;44.768;2023-02-19T10:56:09;95550.72;;;11.01;47.10
77889;BME280;67082;41.704;44.768;2023-02-19T10:58:41;95570.16;;;10.71;47.21
77889;BME280;67082;41.704;44.768;2023-02-19T11:01:21;95554.16;;;10.75;48.51
77889;BME280;67082;41.704;44.768;2023-02-19T11:03:51;95556.88;;;11.05;47.44
77889;BME280;67082;41.704;44.768;2023-02-19T11:06:24;95559.66;;;11.14;47.34
77889;BME280;67082;41.704;44.768;2023-02-19T11:08:58;95563.63;;;10.95;47.62
77889;BME280;67082;41.704;44.768;2023-02-19T11:11:34;95565.41;;;11.29;47.00
77889;BME280;67082;41.704;44.768;2023-02-19T11:14:14;95565.16;;;10.88;48.51
77889;BME280;67082;41.704;44.768;2023-02-19T11:16:57;95569.97;;;10.96;47.97
77889;BME280;67082;41.704;44.768;2023-02-19T11:19:43;95555.19;;;10.68;49.03
77889;BME280;67082;41.704;44.768;2023-02-19T11:22:39;95562.41;;;10.96;48.83
77889;BME280;67082;41.704;44.768;2023-02-19T11:27:57;95547.44;;;10.85;48.96
77889;BME280;67082;41.704;44.768;2023-02-19T11:35:47;95560.94;;;10.44;49.90
77889;BME280;67082;41.704;44.768;2023-02-19T11:38:18;95569.53;;;10.37;50.15
77889;BME280;67082;41.704;44.768;2023-02-19T11:41:17;95556.91;;;10.36;50.50
77889;BME280;67082;41.704;44.768;2023-02-19T12:15:01;95560.66;;;10.51;51.50
77889;BME280;67082;41.704;44.768;2023-02-19T12:20:38;95570.56;;;10.61;51.02
77889;BME280;67082;41.704;44.768;2023-02-19T12:37:22;95595.81;;;10.63;49.62
77889;BME280;67082;41.704;44.768;2023-02-19T12:39:58;95599.16;;;10.57;50.15
77889;BME280;67082;41.704;44.768;2023-02-19T12:42:46;95593.63;;;10.57;49.73
77889;BME280;67082;41.704;44.768;2023-02-19T12:45:30;95595.81;;;10.63;50.71
77889;BME280;67082;41.704;44.768;2023-02-19T12:50:49;95594.41;;;10.58;49.83
77889;BME280;67082;41.704;44.768;2023-02-19T12:53:28;95598.38;;;10.27;50.89
77889;BME280;67082;41.704;44.768;2023-02-19T12:56:07;95580.41;;;10.31;50.81
77889;BME280;67082;41.704;44.768;2023-02-19T12:58:45;95589.41;;;10.44;50.21
77889;BME280;67082;41.704;44.768;2023-02-19T13:01:24;95584.00;;;10.41;50.03
77889;BME280;67082;41.704;44.768;2023-02-19T13:06:55;95582.91;;;10.17;50.42
77889;BME280;67082;41.704;44.768;2023-02-19T13:12:03;95586.03;;;10.49;49.95
77889;BME280;67082;41.704;44.768;2023-02-19T13:14:47;95585.03;;;10.34;49.78
77889;BME280;67082;41.704;44.768;2023-02-19T13:17:27;95593.53;;;10.40;50.17
77889;BME280;67082;41.704;44.768;2023-02-19T13:23:22;95603.13;;;10.05;50.69
77889;BME280;67082;41.704;44.768;2023-02-19T13:37:39;95598.34;;;9.84;51.86
77889;BME280;67082;41.704;44.768;2023-02-19T13:42:57;95599.97;;;9.60;52.51
77889;BME280;67082;41.704;44.768;2023-02-19T13:45:33;95601.81;;;9.75;52.47
77889;BME280;67082;41.704;44.768;2023-02-19T13:48:29;95607.44;;;9.72;52.32
77889;BME280;67082;41.704;44.768;2023-02-19T13:53:57;95610.22;;;9.72;52.39
77889;BME280;67082;41.704;44.768;2023-02-19T13:59:11;95617.91;;;9.55;52.57
77889;BME280;67082;41.704;44.768;2023-02-19T14:04:39;95614.03;;;9.53;53.09
77889;BME280;67082;41.704;44.768;2023-02-19T14:14:47;95614.31;;;9.67;52.37
77889;BME280;67082;41.704;44.768;2023-02-19T14:23:13;95638.63;;;9.26;54.38
77889;BME280;67082;41.704;44.768;2023-02-19T14:25:48;95647.41;;;9.12;54.34
77889;BME280;67082;41.704;44.768;2023-02-19T14:28:27;95637.78;;;9.04;55.03
77889;BME280;67082;41.704;44.768;2023-02-19T14:33:32;95635.00;;;9.29;55.03
77889;BME280;67082;41.704;44.768;2023-02-19T14:36:05;95639.78;;;9.16;55.07
77889;BME280;67082;41.704;44.768;2023-02-19T14:39:28;95644.06;;;9.04;54.95
77889;BME280;67082;41.704;44.768;2023-02-19T14:42:00;95647.59;;;8.80;56.33
77889;BME280;67082;41.704;44.768;2023-02-19T14:44:31;95639.06;;;8.62;56.02
77889;BME280;67082;41.704;44.768;2023-02-19T14:47:03;95618.44;;;8.66;56.54
77889;BME280;67082;41.704;44.768;2023-02-19T14:49:46;95639.97;;;8.59;56.57
77889;BME280;67082;41.704;44.768;2023-02-19T14:52:48;95645.34;;;8.50;56.40
77889;BME280;67082;41.704;44.768;2023-02-19T14:55:34;95642.81;;;8.43;56.37
77889;BME280;67082;41.704;44.768;2023-02-19T14:58:06;95651.41;;;8.45;56.88
77889;BME280;67082;41.704;44.768;2023-02-19T15:00:39;95648.97;;;8.34;57.14
77889;BME280;67082;41.704;44.768;2023-02-19T15:03:28;95658.25;;;8.40;56.90
77889;BME280;67082;41.704;44.768;2023-02-19T15:06:04;95653.75;;;8.18;58.12
77889;BME280;67082;41.704;44.768;2023-02-19T15:08:37;95653.59;;;8.25;58.21
77889;BME280;67082;41.704;44.768;2023-02-19T15:11:10;95643.31;;;8.25;58.12
77889;BME280;67082;41.704;44.768;2023-02-19T15:13:39;95652.91;;;8.21;57.80
77889;BME280;67082;41.704;44.768;2023-02-19T15:16:17;95661.56;;;8.07;58.00
77889;BME280;67082;41.704;44.768;2023-02-19T15:18:47;95657.31;;;8.02;58.81
77889;BME280;67082;41.704;44.768;2023-02-19T15:21:24;95662.72;;;7.93;58.44
77889;BME280;67082;41.704;44.768;2023-02-19T15:23:58;95653.84;;;7.86;58.77
77889;BME280;67082;41.704;44.768;2023-02-19T15:26:41;95662.78;;;8.06;58.20
77889;BME280;67082;41.704;44.768;2023-02-19T15:29:12;95657.09;;;7.97;58.03
77889;BME280;67082;41.704;44.768;2023-02-19T15:31:45;95670.78;;;8.00;57.48
77889;BME280;67082;41.704;44.768;2023-02-19T15:34:20;95677.22;;;8.10;57.78
77889;BME280;67082;41.704;44.768;2023-02-19T15:36:51;95677.09;;;8.01;58.16
77889;BME280;67082;41.704;44.768;2023-02-19T15:39:40;95657.91;;;8.10;57.73
77889;BME280;67082;41.704;44.768;2023-02-19T15:42:16;95659.28;;;8.18;57.78
77889;BME280;67082;41.704;44.768;2023-02-19T15:45:12;95693.06;;;7.93;57.47
77889;BME280;67082;41.704;44.768;2023-02-19T15:47:56;95678.16;;;7.91;57.69